Time;durP1;ratioP1;P1;durP2;ratioP2;P2;SDS_P1;SDS_P2;PMS_P1;PMS_P2;Temp;Humidity;BMP_temperature;BMP_pressure;BME280_temperature;BME280_humidity;BME280_pressure;Samples;Min_cycle;Max_cycle;Signal;HPM_P1;HPM_P2
2021/04/29 00:00:19;;;;;;;;;;;12.90;81.00;;;;;;5071475;28;19916;-68
2021/04/29 00:02:44;;;;;;;;;;;13.00;81.20;;;;;;5071705;28;19954;-67
2021/04/29 00:05:15;;;;;;;;;;;12.90;81.00;;;;;;5071407;28;19908;-67
2021/04/29 00:07:41;;;;;;;;;;;13.00;81.10;;;;;;5071543;28;19928;-68
2021/04/29 00:10:07;;;;;;;;;;;13.00;81.10;;;;;;5071175;28;19908;-67
2021/04/29 00:12:33;;;;;;;;;;;12.90;81.20;;;;;;5071389;28;20357;-68
2021/04/29 00:14:59;;;;;;;;;;;12.90;81.20;;;;;;5071446;28;19913;-68
2021/04/29 00:17:24;;;;;;;;;;;12.90;81.40;;;;;;5071353;28;20380;-67
2021/04/29 00:19:50;;;;;;;;;;;12.90;81.60;;;;;;5071208;28;19959;-67
2021/04/29 00:22:15;;;;;;;;;;;12.90;81.80;;;;;;5071120;28;20344;-66
2021/04/29 00:24:41;;;;;;;;;;;12.80;82.10;;;;;;5071312;28;20292;-67
2021/04/29 00:27:06;;;;;;;;;;;12.80;82.10;;;;;;5071129;28;19927;-68
2021/04/29 00:29:32;;;;;;;;;;;12.80;82.50;;;;;;5071112;28;19908;-68
2021/04/29 00:31:57;;;;;;;;;;;12.80;82.40;;;;;;5071155;28;20062;-67
2021/04/29 00:34:23;;;;;;;;;;;12.80;82.80;;;;;;5071122;28;19977;-67
2021/04/29 00:36:49;;;;;;;;;;;12.80;83.40;;;;;;5070926;28;19904;-67
2021/04/29 00:39:15;;;;;;;;;;;12.80;83.10;;;;;;5069563;28;19916;-68
2021/04/29 00:41:40;;;;;;;;;;;12.80;83.00;;;;;;5070865;28;20392;-67
2021/04/29 00:44:06;;;;;;;;;;;12.80;83.30;;;;;;5070833;28;19912;-67
2021/04/29 00:46:31;;;;;;;;;;;12.80;83.50;;;;;;5069453;28;19938;-67
2021/04/29 00:48:57;;;;;;;;;;;12.80;83.80;;;;;;5070773;28;19951;-68
2021/04/29 00:51:22;;;;;;;;;;;12.70;83.80;;;;;;5070846;28;19912;-67
2021/04/29 00:53:50;;;;;;;;;;;12.70;83.90;;;;;;5069745;28;20016;-67
2021/04/29 00:56:15;;;;;;;;;;;12.70;84.10;;;;;;5070503;28;19931;-68
2021/04/29 00:58:41;;;;;;;;;;;12.70;84.40;;;;;;5069303;28;19908;-68
2021/04/29 01:01:07;;;;;;;;;;;12.70;84.60;;;;;;5069314;28;19908;-68
2021/04/29 01:03:44;;;;;;;;;;;12.60;85.00;;;;;;5070435;28;19981;-68
2021/04/29 01:06:13;;;;;;;;;;;12.60;85.30;;;;;;5070245;28;19920;-67
2021/04/29 01:09:00;;;;;;;;;;;12.50;85.70;;;;;;5070417;28;19904;-67
2021/04/29 01:11:30;;;;;;;;;;;12.50;86.80;;;;;;5070470;28;20373;-67
2021/04/29 01:13:57;;;;;;;;;;;12.50;86.10;;;;;;5070111;28;19951;-68
2021/04/29 01:16:23;;;;;;;;;;;12.50;86.30;;;;;;5070306;28;19965;-68
2021/04/29 01:18:51;;;;;;;;;;;12.50;86.40;;;;;;5070113;28;20025;-67
2021/04/29 01:21:17;;;;;;;;;;;12.50;86.30;;;;;;5070167;28;20369;-68
2021/04/29 01:23:56;;;;;;;;;;;12.50;86.40;;;;;;5069978;28;19915;-67
2021/04/29 01:26:29;;;;;;;;;;;12.50;86.50;;;;;;5068419;28;19938;-67
2021/04/29 01:28:55;;;;;;;;;;;12.50;86.60;;;;;;5069921;28;19908;-67
2021/04/29 01:31:22;;;;;;;;;;;12.50;87.10;;;;;;5068588;28;19961;-67
2021/04/29 01:33:49;;;;;;;;;;;12.50;87.20;;;;;;5069933;28;20144;-67
2021/04/29 01:36:14;;;;;;;;;;;12.60;87.10;;;;;;5068247;28;20374;-66
2021/04/29 01:38:40;;;;;;;;;;;12.50;87.20;;;;;;5069912;28;19999;-67
2021/04/29 01:41:05;;;;;;;;;;;12.50;87.40;;;;;;5069740;28;19934;-67
2021/04/29 01:43:32;;;;;;;;;;;12.40;87.80;;;;;;5069515;28;19997;-67
2021/04/29 01:45:57;;;;;;;;;;;12.40;88.10;;;;;;5068241;28;20338;-66
2021/04/29 01:48:23;;;;;;;;;;;12.30;88.10;;;;;;5069495;28;19904;-67
2021/04/29 01:50:49;;;;;;;;;;;12.30;88.50;;;;;;5069548;28;20391;-67
2021/04/29 01:53:14;;;;;;;;;;;12.30;88.60;;;;;;5069129;28;19911;-67
2021/04/29 01:55:40;;;;;;;;;;;12.30;88.80;;;;;;5069438;28;20019;-67
2021/04/29 01:58:06;;;;;;;;;;;12.30;88.90;;;;;;5069359;28;19916;-67
2021/04/29 02:00:31;;;;;;;;;;;12.20;89.00;;;;;;5069277;28;19911;-66
2021/04/29 02:03:00;;;;;;;;;;;12.10;89.50;;;;;;5069306;28;19915;-67
2021/04/29 02:05:25;;;;;;;;;;;12.10;89.60;;;;;;5069177;28;19946;-68
2021/04/29 02:07:51;;;;;;;;;;;12.10;89.70;;;;;;5069255;28;19958;-67
2021/04/29 02:10:17;;;;;;;;;;;12.10;89.70;;;;;;5069011;28;19959;-67
2021/04/29 02:12:51;;;;;;;;;;;12.20;89.80;;;;;;5067729;28;19912;-67
2021/04/29 02:15:17;;;;;;;;;;;12.10;89.80;;;;;;5067940;28;19950;-67
2021/04/29 02:17:46;;;;;;;;;;;12.10;90.00;;;;;;5068976;28;19984;-68
2021/04/29 02:20:13;;;;;;;;;;;12.00;90.10;;;;;;5068975;28;20053;-67
2021/04/29 02:22:40;;;;;;;;;;;12.00;90.20;;;;;;5069023;28;19905;-67
2021/04/29 02:25:05;;;;;;;;;;;12.00;90.20;;;;;;5068936;28;19905;-68
2021/04/29 02:27:33;;;;;;;;;;;12.00;90.20;;;;;;5069027;28;20427;-67
2021/04/29 02:29:59;;;;;;;;;;;12.00;90.10;;;;;;5068882;28;19957;-67
2021/04/29 02:32:24;;;;;;;;;;;12.00;90.00;;;;;;5068997;28;20322;-67
2021/04/29 02:34:50;;;;;;;;;;;11.90;90.30;;;;;;5068904;28;20065;-67
2021/04/29 02:37:16;;;;;;;;;;;11.90;90.30;;;;;;5068934;28;20168;-68
2021/04/29 02:39:42;;;;;;;;;;;11.80;90.50;;;;;;5068941;28;19904;-67
2021/04/29 02:42:08;;;;;;;;;;;11.80;90.50;;;;;;5068659;28;20577;-67
2021/04/29 02:44:36;;;;;;;;;;;11.80;90.60;;;;;;5068906;28;19954;-67
2021/04/29 02:47:02;;;;;;;;;;;11.80;90.60;;;;;;5068699;28;19916;-66
2021/04/29 02:49:28;;;;;;;;;;;11.70;90.60;;;;;;5066595;28;20490;-67
2021/04/29 02:51:54;;;;;;;;;;;11.80;90.50;;;;;;5068625;28;19908;-68
2021/04/29 02:54:20;;;;;;;;;;;11.80;90.40;;;;;;5068590;28;20375;-68
2021/04/29 02:56:46;;;;;;;;;;;11.70;90.30;;;;;;5068662;28;19915;-68
2021/04/29 02:59:12;;;;;;;;;;;11.70;90.50;;;;;;5068734;28;20303;-67
2021/04/29 03:01:40;;;;;;;;;;;11.70;90.20;;;;;;5068655;28;20590;-68
2021/04/29 03:04:06;;;;;;;;;;;11.60;90.10;;;;;;5067078;28;19912;-67
2021/04/29 03:06:31;;;;;;;;;;;11.60;90.00;;;;;;5068530;28;19916;-68
2021/04/29 03:08:57;;;;;;;;;;;11.60;90.00;;;;;;5068561;28;20353;-68
2021/04/29 03:11:22;;;;;;;;;;;11.60;90.00;;;;;;5067187;28;19908;-68
2021/04/29 03:13:48;;;;;;;;;;;11.50;89.90;;;;;;5068394;28;19982;-68
2021/04/29 03:16:14;;;;;;;;;;;11.60;89.70;;;;;;5070062;28;19915;-66
2021/04/29 03:18:39;;;;;;;;;;;11.50;89.30;;;;;;5072761;28;19904;-68
2021/04/29 03:21:05;;;;;;;;;;;11.50;89.00;;;;;;5072360;28;20385;-68
2021/04/29 03:23:30;;;;;;;;;;;11.50;88.70;;;;;;5070668;28;19912;-67
2021/04/29 03:25:56;;;;;;;;;;;11.40;89.10;;;;;;5072280;28;19951;-68
2021/04/29 03:28:22;;;;;;;;;;;11.40;90.10;;;;;;5072177;28;20281;-67
2021/04/29 03:30:47;;;;;;;;;;;11.40;89.70;;;;;;5072325;28;19908;-68
2021/04/29 03:33:13;;;;;;;;;;;11.30;90.00;;;;;;5072272;28;20342;-68
2021/04/29 03:35:38;;;;;;;;;;;11.30;89.40;;;;;;5072247;28;19912;-68
2021/04/29 03:38:04;;;;;;;;;;;11.30;88.90;;;;;;5072043;28;19908;-67
2021/04/29 03:40:30;;;;;;;;;;;11.20;88.70;;;;;;5071915;28;19916;-68
2021/04/29 03:42:56;;;;;;;;;;;11.20;88.40;;;;;;5071936;28;19952;-68
2021/04/29 03:45:22;;;;;;;;;;;11.20;87.90;;;;;;5071851;28;20315;-67
2021/04/29 03:47:47;;;;;;;;;;;11.10;87.90;;;;;;5071834;28;19912;-68
2021/04/29 03:50:13;;;;;;;;;;;11.00;88.10;;;;;;5071736;28;19908;-69
2021/04/29 03:52:38;;;;;;;;;;;11.00;88.10;;;;;;5070654;28;19912;-67
2021/04/29 03:55:04;;;;;;;;;;;11.00;88.10;;;;;;5070433;28;19908;-68
2021/04/29 03:57:30;;;;;;;;;;;11.00;88.20;;;;;;5071775;28;20455;-68
2021/04/29 03:59:55;;;;;;;;;;;10.90;88.40;;;;;;5071781;28;20354;-68
2021/04/29 04:02:22;;;;;;;;;;;10.90;88.80;;;;;;5071500;28;20332;-68
2021/04/29 04:04:47;;;;;;;;;;;10.90;88.80;;;;;;5071564;28;19978;-67
2021/04/29 04:07:13;;;;;;;;;;;10.80;88.80;;;;;;5071585;28;19978;-68
2021/04/29 04:09:38;;;;;;;;;;;10.80;88.80;;;;;;5070189;28;19908;-68
2021/04/29 04:12:04;;;;;;;;;;;10.70;89.10;;;;;;5071409;28;19908;-68
2021/04/29 04:14:30;;;;;;;;;;;10.70;89.30;;;;;;5071230;28;20710;-68
2021/04/29 04:16:55;;;;;;;;;;;10.80;89.20;;;;;;5071431;28;19966;-66
2021/04/29 04:19:21;;;;;;;;;;;10.80;89.10;;;;;;5071416;28;20018;-68
2021/04/29 04:21:46;;;;;;;;;;;10.80;89.10;;;;;;5071296;28;19904;-68
2021/04/29 04:24:12;;;;;;;;;;;10.90;88.90;;;;;;5071035;28;20446;-67
2021/04/29 04:26:37;;;;;;;;;;;10.90;88.90;;;;;;5070577;28;19924;-67
2021/04/29 04:29:03;;;;;;;;;;;10.90;88.50;;;;;;5070432;28;20518;-67
2021/04/29 04:31:28;;;;;;;;;;;10.90;88.50;;;;;;5070862;28;19908;-67
2021/04/29 04:33:54;;;;;;;;;;;10.80;88.70;;;;;;5071049;28;19908;-67
2021/04/29 04:36:20;;;;;;;;;;;10.80;88.90;;;;;;5070730;28;19904;-67
2021/04/29 04:38:45;;;;;;;;;;;10.80;88.90;;;;;;5070818;28;19951;-68
2021/04/29 04:41:11;;;;;;;;;;;10.80;89.20;;;;;;5070924;28;19915;-67
2021/04/29 04:43:36;;;;;;;;;;;10.70;89.40;;;;;;5070945;28;19908;-68
2021/04/29 04:46:02;;;;;;;;;;;10.60;89.60;;;;;;5070632;28;19912;-68
2021/04/29 04:48:28;;;;;;;;;;;10.70;89.80;;;;;;5070777;28;20440;-67
2021/04/29 04:50:53;;;;;;;;;;;10.60;90.00;;;;;;5070316;28;19908;-67
2021/04/29 04:53:20;;;;;;;;;;;10.60;89.90;;;;;;5070743;28;19912;-68
2021/04/29 04:55:48;;;;;;;;;;;10.60;90.00;;;;;;5070437;28;19958;-68
2021/04/29 04:58:14;;;;;;;;;;;10.60;90.00;;;;;;5070465;28;19919;-68
2021/04/29 05:00:40;;;;;;;;;;;10.60;90.00;;;;;;5070566;28;20008;-68
2021/04/29 05:03:06;;;;;;;;;;;10.60;90.10;;;;;;5070447;28;19999;-68
2021/04/29 05:05:31;;;;;;;;;;;10.60;90.20;;;;;;5070113;28;19924;-67
2021/04/29 05:07:58;;;;;;;;;;;10.50;90.30;;;;;;5070552;28;19904;-68
2021/04/29 05:10:24;;;;;;;;;;;10.50;90.40;;;;;;5070257;28;19930;-68
2021/04/29 05:12:49;;;;;;;;;;;10.50;90.50;;;;;;5070099;28;19912;-67
2021/04/29 05:15:15;;;;;;;;;;;10.50;90.50;;;;;;5070180;28;19995;-68
2021/04/29 05:17:40;;;;;;;;;;;10.50;90.60;;;;;;5070079;28;19995;-67
2021/04/29 05:20:06;;;;;;;;;;;10.50;90.60;;;;;;5069979;28;19908;-68
2021/04/29 05:22:32;;;;;;;;;;;10.40;90.80;;;;;;5070010;28;19915;-67
2021/04/29 05:24:57;;;;;;;;;;;10.40;90.80;;;;;;5069948;28;19912;-68
2021/04/29 05:27:23;;;;;;;;;;;10.40;90.90;;;;;;5070086;28;20010;-68
2021/04/29 05:29:48;;;;;;;;;;;10.50;90.80;;;;;;5069741;28;19908;-69
2021/04/29 05:32:14;;;;;;;;;;;10.50;90.80;;;;;;5069809;28;19908;-68
2021/04/29 05:34:40;;;;;;;;;;;10.60;90.70;;;;;;5069903;28;19946;-68
2021/04/29 05:37:06;;;;;;;;;;;10.60;90.70;;;;;;5069661;28;20280;-68
2021/04/29 05:39:31;;;;;;;;;;;10.60;90.50;;;;;;5069239;28;19908;-68
2021/04/29 05:41:57;;;;;;;;;;;10.80;90.20;;;;;;5069689;28;19904;-67
2021/04/29 05:44:23;;;;;;;;;;;10.80;89.90;;;;;;5069493;28;19908;-68
2021/04/29 05:46:48;;;;;;;;;;;10.90;89.90;;;;;;5068064;28;20050;-68
2021/04/29 05:49:14;;;;;;;;;;;10.80;90.10;;;;;;5069662;28;19908;-68
2021/04/29 05:51:40;;;;;;;;;;;10.80;90.20;;;;;;5069528;28;20009;-69
2021/04/29 05:54:06;;;;;;;;;;;10.80;90.20;;;;;;5068403;28;19908;-68
2021/04/29 05:56:32;;;;;;;;;;;10.90;90.20;;;;;;5068056;28;19905;-67
2021/04/29 05:58:57;;;;;;;;;;;10.80;90.20;;;;;;5069527;28;19904;-68
2021/04/29 06:01:23;;;;;;;;;;;10.90;90.10;;;;;;5069299;28;19909;-68
2021/04/29 06:03:48;;;;;;;;;;;10.90;90.00;;;;;;5069152;28;19912;-68
2021/04/29 06:06:14;;;;;;;;;;;10.90;90.10;;;;;;5069020;28;20577;-68
2021/04/29 06:08:39;;;;;;;;;;;10.90;90.00;;;;;;5069246;28;19911;-68
2021/04/29 06:11:05;;;;;;;;;;;11.00;90.00;;;;;;5069138;28;19915;-69
2021/04/29 06:13:31;;;;;;;;;;;10.90;89.90;;;;;;5069168;28;20392;-68
2021/04/29 06:15:56;;;;;;;;;;;10.90;90.20;;;;;;5069398;28;19916;-68
2021/04/29 06:18:23;;;;;;;;;;;10.90;90.30;;;;;;5069015;28;19979;-68
2021/04/29 06:20:48;;;;;;;;;;;10.90;90.30;;;;;;5068994;28;19912;-68
2021/04/29 06:23:14;;;;;;;;;;;10.90;90.30;;;;;;5069181;28;19904;-67
2021/04/29 06:25:39;;;;;;;;;;;10.80;90.40;;;;;;5069261;28;20116;-68
2021/04/29 06:28:05;;;;;;;;;;;10.80;90.50;;;;;;5068911;28;20373;-67
2021/04/29 06:30:30;;;;;;;;;;;10.70;90.50;;;;;;5069007;28;19919;-68
2021/04/29 06:32:56;;;;;;;;;;;10.80;90.50;;;;;;5068988;28;19908;-69
2021/04/29 06:35:21;;;;;;;;;;;10.90;90.40;;;;;;5068961;28;19908;-68
2021/04/29 06:37:47;;;;;;;;;;;11.10;90.20;;;;;;5068900;28;19923;-68
2021/04/29 06:40:14;;;;;;;;;;;11.20;90.00;;;;;;5068776;28;19961;-68
2021/04/29 06:42:40;;;;;;;;;;;11.20;90.00;;;;;;5067581;28;20527;-68
2021/04/29 06:45:05;;;;;;;;;;;11.20;90.00;;;;;;5067379;28;19912;-69
2021/04/29 06:47:32;;;;;;;;;;;11.20;90.00;;;;;;5068674;28;20385;-68
2021/04/29 06:49:57;;;;;;;;;;;11.30;89.80;;;;;;5068203;28;19909;-68
2021/04/29 06:52:23;;;;;;;;;;;11.40;89.60;;;;;;5066984;28;19904;-68
2021/04/29 06:54:48;;;;;;;;;;;11.40;88.70;;;;;;5068684;28;19919;-68
2021/04/29 06:57:14;;;;;;;;;;;11.50;88.60;;;;;;5068691;28;19904;-68
2021/04/29 06:59:40;;;;;;;;;;;11.50;88.50;;;;;;5068441;28;19995;-67
2021/04/29 07:02:06;;;;;;;;;;;11.50;88.60;;;;;;5068457;28;19904;-67
2021/04/29 07:04:31;;;;;;;;;;;11.50;89.00;;;;;;5068617;28;19939;-68
2021/04/29 07:06:57;;;;;;;;;;;11.50;89.00;;;;;;5068490;28;19956;-68
2021/04/29 07:09:22;;;;;;;;;;;11.50;89.10;;;;;;5068654;28;19904;-68
2021/04/29 07:11:48;;;;;;;;;;;11.50;88.70;;;;;;5067247;28;20640;-68
2021/04/29 07:14:14;;;;;;;;;;;11.60;88.30;;;;;;5068355;28;20385;-68
2021/04/29 07:16:39;;;;;;;;;;;11.60;88.20;;;;;;5067274;28;19915;-68
2021/04/29 07:19:05;;;;;;;;;;;11.60;87.90;;;;;;5068513;28;19931;-69
2021/04/29 07:21:30;;;;;;;;;;;11.70;87.90;;;;;;5067109;28;19913;-68
2021/04/29 07:23:56;;;;;;;;;;;11.60;87.90;;;;;;5068553;28;20280;-68
2021/04/29 07:26:21;;;;;;;;;;;11.60;88.20;;;;;;5068247;28;19970;-68
2021/04/29 07:28:47;;;;;;;;;;;11.60;88.50;;;;;;5068574;28;20424;-68
2021/04/29 07:31:13;;;;;;;;;;;11.60;88.30;;;;;;5068343;28;19999;-69
2021/04/29 07:33:40;;;;;;;;;;;11.60;88.20;;;;;;5067189;28;20393;-68
2021/04/29 07:36:06;;;;;;;;;;;11.60;88.50;;;;;;5068348;28;19951;-68
2021/04/29 07:38:31;;;;;;;;;;;11.60;89.00;;;;;;5068203;28;19944;-68
2021/04/29 07:40:57;;;;;;;;;;;11.70;88.40;;;;;;5068028;28;19908;-69
2021/04/29 07:43:23;;;;;;;;;;;11.80;87.60;;;;;;5068455;28;19908;-68
2021/04/29 07:45:48;;;;;;;;;;;11.90;86.90;;;;;;5068123;28;19966;-67
2021/04/29 07:48:14;;;;;;;;;;;11.90;86.90;;;;;;5068022;28;19908;-67
2021/04/29 07:50:39;;;;;;;;;;;11.70;87.20;;;;;;5066897;28;20426;-68
2021/04/29 07:53:05;;;;;;;;;;;11.70;87.50;;;;;;5068331;28;19908;-68
2021/04/29 07:55:31;;;;;;;;;;;11.70;87.60;;;;;;5068113;28;20365;-68
2021/04/29 07:57:56;;;;;;;;;;;11.70;88.80;;;;;;5068254;28;19908;-68
2021/04/29 08:00:22;;;;;;;;;;;11.70;89.00;;;;;;5067906;28;19931;-68
2021/04/29 08:02:48;;;;;;;;;;;11.70;89.00;;;;;;5069013;28;19911;-68
2021/04/29 08:05:13;;;;;;;;;;;11.70;88.80;;;;;;5071605;28;19911;-68
2021/04/29 08:07:39;;;;;;;;;;;11.70;89.10;;;;;;5071591;28;20364;-67
2021/04/29 08:10:05;;;;;;;;;;;11.80;89.30;;;;;;5071383;28;20450;-68
2021/04/29 08:12:31;;;;;;;;;;;11.80;88.70;;;;;;5071450;28;19930;-67
2021/04/29 08:14:59;;;;;;;;;;;11.90;89.00;;;;;;5071401;28;19921;-67
2021/04/29 08:17:24;;;;;;;;;;;11.90;88.20;;;;;;5071363;28;19999;-68
2021/04/29 08:19:52;;;;;;;;;;;12.10;88.30;;;;;;5070019;28;20031;-68
2021/04/29 08:22:18;;;;;;;;;;;12.10;88.10;;;;;;5071078;28;20173;-67
2021/04/29 08:24:43;;;;;;;;;;;12.10;87.80;;;;;;5071348;28;19909;-68
2021/04/29 08:27:09;;;;;;;;;;;12.10;87.90;;;;;;5071070;28;20384;-68
2021/04/29 08:29:35;;;;;;;;;;;12.20;87.80;;;;;;5069842;28;19930;-68
2021/04/29 08:32:00;;;;;;;;;;;12.30;87.30;;;;;;5071060;28;19915;-67
2021/04/29 08:34:26;;;;;;;;;;;12.30;87.00;;;;;;5071166;28;19908;-67
2021/04/29 08:36:52;;;;;;;;;;;12.30;86.90;;;;;;5071074;28;19931;-67
2021/04/29 08:39:17;;;;;;;;;;;12.30;86.90;;;;;;5071063;28;20272;-68
2021/04/29 08:41:44;;;;;;;;;;;12.30;87.00;;;;;;5071017;28;20472;-68
2021/04/29 08:44:09;;;;;;;;;;;12.40;86.90;;;;;;5069439;28;20011;-68
2021/04/29 08:46:35;;;;;;;;;;;12.40;86.90;;;;;;5070906;28;20030;-67
2021/04/29 08:49:00;;;;;;;;;;;12.40;87.20;;;;;;5070941;28;19955;-67
2021/04/29 08:51:26;;;;;;;;;;;12.50;86.90;;;;;;5070792;28;20456;-68
2021/04/29 08:53:52;;;;;;;;;;;12.40;87.40;;;;;;5070792;28;19909;-67
2021/04/29 08:56:22;;;;;;;;;;;12.50;87.00;;;;;;5069370;28;19995;-68
2021/04/29 08:58:48;;;;;;;;;;;12.50;86.60;;;;;;5070710;28;19982;-67
2021/04/29 09:01:14;;;;;;;;;;;12.40;86.90;;;;;;5070678;28;20430;-67
2021/04/29 09:03:40;;;;;;;;;;;12.40;87.20;;;;;;5070490;28;19908;-67
2021/04/29 09:06:06;;;;;;;;;;;12.50;87.20;;;;;;5070310;28;19912;-68
2021/04/29 09:08:33;;;;;;;;;;;12.50;87.20;;;;;;5070316;28;19931;-68
2021/04/29 09:11:11;;;;;;;;;;;12.50;87.20;;;;;;5068970;28;19908;-68
2021/04/29 09:13:37;;;;;;;;;;;12.50;87.30;;;;;;5068023;28;19920;-68
2021/04/29 09:16:13;;;;;;;;;;;12.50;87.40;;;;;;5070363;28;19904;-68
2021/04/29 09:18:42;;;;;;;;;;;12.50;87.70;;;;;;5068819;28;20392;-67
2021/04/29 09:21:12;;;;;;;;;;;12.70;87.40;;;;;;5070215;28;19954;-68
2021/04/29 09:23:40;;;;;;;;;;;12.80;87.10;;;;;;5070041;28;19913;-67
2021/04/29 09:26:06;;;;;;;;;;;12.90;86.60;;;;;;5069836;28;19919;-69
2021/04/29 09:28:37;;;;;;;;;;;13.00;85.70;;;;;;5070048;28;19908;-68
2021/04/29 09:31:03;;;;;;;;;;;13.10;85.30;;;;;;5070025;28;19904;-69
2021/04/29 09:33:36;;;;;;;;;;;13.10;84.80;;;;;;5068580;28;19919;-68
2021/04/29 09:36:03;;;;;;;;;;;13.20;84.90;;;;;;5069907;28;19966;-67
2021/04/29 09:38:33;;;;;;;;;;;13.20;85.00;;;;;;5068557;28;20011;-68
2021/04/29 09:40:58;;;;;;;;;;;13.10;85.30;;;;;;5069817;28;19969;-68
2021/04/29 09:43:24;;;;;;;;;;;13.10;85.20;;;;;;5069855;28;19923;-68
2021/04/29 09:45:59;;;;;;;;;;;13.30;84.70;;;;;;5069651;28;19918;-68
2021/04/29 09:48:38;;;;;;;;;;;13.30;84.60;;;;;;5069701;28;20296;-68
2021/04/29 09:51:05;;;;;;;;;;;13.40;84.40;;;;;;5068135;28;19912;-67
2021/04/29 09:53:38;;;;;;;;;;;13.50;84.10;;;;;;5069557;28;20395;-68
2021/04/29 09:56:08;;;;;;;;;;;13.60;83.60;;;;;;5067993;28;19962;-68
2021/04/29 09:58:33;;;;;;;;;;;13.80;83.10;;;;;;5069560;28;19908;-68
2021/04/29 10:00:59;;;;;;;;;;;13.90;82.50;;;;;;5069252;28;19915;-68
2021/04/29 10:03:24;;;;;;;;;;;14.00;82.10;;;;;;5069319;28;19912;-68
2021/04/29 10:05:54;;;;;;;;;;;14.10;82.00;;;;;;5069277;28;19909;-69
2021/04/29 10:08:23;;;;;;;;;;;14.20;81.90;;;;;;5069083;28;19962;-68
2021/04/29 10:10:49;;;;;;;;;;;14.50;80.60;;;;;;5069200;28;19908;-68
2021/04/29 10:13:16;;;;;;;;;;;14.90;79.80;;;;;;5069300;28;19939;-68
2021/04/29 10:15:42;;;;;;;;;;;15.30;78.30;;;;;;5069326;28;19944;-68
2021/04/29 10:18:09;;;;;;;;;;;15.40;76.50;;;;;;5068950;28;19908;-68
2021/04/29 10:20:45;;;;;;;;;;;15.60;76.30;;;;;;5069084;28;19911;-68
2021/04/29 10:23:11;;;;;;;;;;;15.80;74.50;;;;;;5069156;28;20003;-68
2021/04/29 10:25:37;;;;;;;;;;;16.00;74.70;;;;;;5068877;28;19919;-68
2021/04/29 10:28:04;;;;;;;;;;;16.10;74.30;;;;;;5068894;28;19934;-68
2021/04/29 10:30:30;;;;;;;;;;;16.00;74.80;;;;;;5067491;28;19912;-67
2021/04/29 10:32:55;;;;;;;;;;;15.80;75.20;;;;;;5067482;28;19989;-68
2021/04/29 10:35:22;;;;;;;;;;;15.80;74.80;;;;;;5068967;28;19940;-69
2021/04/29 10:37:54;;;;;;;;;;;15.70;75.00;;;;;;5067476;28;19908;-68
2021/04/29 10:40:29;;;;;;;;;;;15.70;75.40;;;;;;5068612;28;19915;-68
2021/04/29 10:42:55;;;;;;;;;;;15.60;75.50;;;;;;5068804;28;19908;-68
2021/04/29 10:45:20;;;;;;;;;;;15.40;76.40;;;;;;5068614;28;19908;-68
2021/04/29 10:47:46;;;;;;;;;;;15.20;76.90;;;;;;5068744;28;19912;-69
2021/04/29 10:50:14;;;;;;;;;;;15.00;77.90;;;;;;5068553;28;19928;-68
2021/04/29 10:52:50;;;;;;;;;;;15.00;78.60;;;;;;5067441;28;19974;-68
2021/04/29 10:55:33;;;;;;;;;;;15.20;77.80;;;;;;5067333;28;20307;-68
2021/04/29 10:58:00;;;;;;;;;;;15.10;78.20;;;;;;5068557;28;19912;-68
2021/04/29 11:00:27;;;;;;;;;;;15.10;78.30;;;;;;5068554;28;19904;-68
2021/04/29 11:02:59;;;;;;;;;;;15.00;78.80;;;;;;5068562;28;19969;-68
2021/04/29 11:05:26;;;;;;;;;;;15.00;79.10;;;;;;5068553;28;19904;-68
2021/04/29 11:07:51;;;;;;;;;;;14.80;79.20;;;;;;5067351;28;19919;-68
2021/04/29 11:10:18;;;;;;;;;;;14.90;79.30;;;;;;5068356;28;19908;-68
2021/04/29 11:12:54;;;;;;;;;;;15.00;79.20;;;;;;5068439;28;19951;-69
2021/04/29 11:15:24;;;;;;;;;;;15.00;79.30;;;;;;5068590;28;19946;-68
2021/04/29 11:17:59;;;;;;;;;;;15.20;79.30;;;;;;5068535;28;19909;-68
2021/04/29 11:20:24;;;;;;;;;;;15.40;78.30;;;;;;5068493;28;20004;-67
2021/04/29 11:22:54;;;;;;;;;;;15.50;77.60;;;;;;5068332;28;20061;-68
2021/04/29 11:25:19;;;;;;;;;;;15.50;77.10;;;;;;5068396;28;19913;-68
2021/04/29 11:27:45;;;;;;;;;;;15.60;77.20;;;;;;5068323;28;19923;-68
2021/04/29 11:30:12;;;;;;;;;;;15.60;77.30;;;;;;5068380;28;19908;-68
2021/04/29 11:32:39;;;;;;;;;;;15.70;76.90;;;;;;5068422;28;19926;-68
2021/04/29 11:35:06;;;;;;;;;;;15.80;77.10;;;;;;5068241;28;19915;-68
2021/04/29 11:37:41;;;;;;;;;;;15.80;76.90;;;;;;5070348;28;19908;-68
2021/04/29 11:40:08;;;;;;;;;;;15.90;76.00;;;;;;5071943;28;20446;-68
2021/04/29 11:42:34;;;;;;;;;;;15.80;76.30;;;;;;5072025;28;19908;-68
2021/04/29 11:45:13;;;;;;;;;;;15.80;76.40;;;;;;5071999;28;19916;-68
2021/04/29 11:47:39;;;;;;;;;;;15.70;76.70;;;;;;5071891;28;19969;-68
2021/04/29 11:50:05;;;;;;;;;;;15.60;77.00;;;;;;5071896;28;19953;-68
2021/04/29 11:52:30;;;;;;;;;;;15.60;77.50;;;;;;5071961;28;19944;-68
2021/04/29 11:54:56;;;;;;;;;;;15.50;77.80;;;;;;5071904;28;19943;-68
2021/04/29 11:57:22;;;;;;;;;;;15.60;77.70;;;;;;5071798;28;19966;-68
2021/04/29 11:59:51;;;;;;;;;;;15.60;77.40;;;;;;5071637;28;19904;-68
2021/04/29 12:02:17;;;;;;;;;;;15.60;77.40;;;;;;5070559;28;19908;-68
2021/04/29 12:04:44;;;;;;;;;;;15.50;78.00;;;;;;5071816;28;19911;-67
2021/04/29 12:07:10;;;;;;;;;;;15.50;78.30;;;;;;5071490;28;20327;-68
2021/04/29 12:09:36;;;;;;;;;;;15.50;78.70;;;;;;5071540;28;19904;-68
2021/04/29 12:12:09;;;;;;;;;;;15.70;77.90;;;;;;5071373;28;19908;-68
2021/04/29 12:14:34;;;;;;;;;;;15.80;77.50;;;;;;5071350;28;19990;-67
2021/04/29 12:17:00;;;;;;;;;;;15.80;78.00;;;;;;5071133;28;20377;-68
2021/04/29 12:19:27;;;;;;;;;;;16.00;77.20;;;;;;5071384;28;19908;-68
2021/04/29 12:21:52;;;;;;;;;;;16.00;76.60;;;;;;5071303;28;20357;-69
2021/04/29 12:24:18;;;;;;;;;;;16.00;76.90;;;;;;5071038;28;19909;-68
2021/04/29 12:26:44;;;;;;;;;;;16.20;76.70;;;;;;5071221;28;20311;-68
2021/04/29 12:29:13;;;;;;;;;;;16.30;76.20;;;;;;5070960;28;20366;-68
2021/04/29 12:31:50;;;;;;;;;;;16.40;75.50;;;;;;5071142;28;19978;-69
2021/04/29 12:34:17;;;;;;;;;;;16.30;75.90;;;;;;5071069;28;19951;-68
2021/04/29 12:37:02;;;;;;;;;;;16.30;76.40;;;;;;5071127;28;20012;-67
2021/04/29 12:39:29;;;;;;;;;;;16.40;75.70;;;;;;5071040;28;19950;-68
2021/04/29 12:41:58;;;;;;;;;;;16.40;75.30;;;;;;5070910;28;19915;-68
2021/04/29 12:44:31;;;;;;;;;;;16.50;75.60;;;;;;5070926;28;19930;-67
2021/04/29 12:46:56;;;;;;;;;;;16.50;74.80;;;;;;5070915;28;20384;-68
2021/04/29 12:49:22;;;;;;;;;;;16.50;75.00;;;;;;5069733;28;19904;-68
2021/04/29 12:51:47;;;;;;;;;;;16.60;75.20;;;;;;5070881;28;19954;-68
2021/04/29 12:54:13;;;;;;;;;;;16.60;74.60;;;;;;5069669;28;20285;-68
2021/04/29 12:56:40;;;;;;;;;;;17.00;73.80;;;;;;5070766;28;19927;-68
2021/04/29 12:59:09;;;;;;;;;;;17.00;73.20;;;;;;5070587;28;19915;-68
2021/04/29 13:01:34;;;;;;;;;;;17.10;72.90;;;;;;5064846;28;19927;-68
2021/04/29 13:04:00;;;;;;;;;;;17.20;72.70;;;;;;5069339;28;20372;-68
2021/04/29 13:06:25;;;;;;;;;;;17.10;72.80;;;;;;5070295;28;19920;-68
2021/04/29 13:08:51;;;;;;;;;;;17.10;72.80;;;;;;5070326;28;20432;-67
2021/04/29 13:11:30;;;;;;;;;;;17.10;72.40;;;;;;5070311;28;19904;-67
2021/04/29 13:14:06;;;;;;;;;;;17.00;73.10;;;;;;5070268;28;19962;-68
2021/04/29 13:16:31;;;;;;;;;;;17.00;72.70;;;;;;5070160;28;19904;-69
2021/04/29 13:18:57;;;;;;;;;;;17.00;73.10;;;;;;5070257;28;19908;-68
2021/04/29 13:21:23;;;;;;;;;;;17.10;72.90;;;;;;5070182;28;20503;-67
2021/04/29 13:23:49;;;;;;;;;;;17.00;73.50;;;;;;5068658;28;19920;-66
2021/04/29 13:26:14;;;;;;;;;;;17.00;73.60;;;;;;5068001;28;20006;-67
2021/04/29 13:28:41;;;;;;;;;;;17.10;73.20;;;;;;5070015;28;20007;-67
2021/04/29 13:31:06;;;;;;;;;;;17.20;73.00;;;;;;5070016;28;19916;-68
2021/04/29 13:33:32;;;;;;;;;;;17.30;72.70;;;;;;5068546;28;19909;-68
2021/04/29 13:35:57;;;;;;;;;;;17.70;71.70;;;;;;5069962;28;19909;-68
2021/04/29 13:38:23;;;;;;;;;;;17.90;70.60;;;;;;5069684;28;20361;-68
2021/04/29 13:40:48;;;;;;;;;;;18.10;69.80;;;;;;5069794;28;19912;-68
2021/04/29 13:43:14;;;;;;;;;;;18.40;68.60;;;;;;5069803;28;20642;-68
2021/04/29 13:45:40;;;;;;;;;;;18.60;68.50;;;;;;5069546;28;19916;-68
2021/04/29 13:48:06;;;;;;;;;;;18.90;67.10;;;;;;5069512;28;19912;-68
2021/04/29 13:50:32;;;;;;;;;;;19.00;67.40;;;;;;5068080;28;20737;-68
2021/04/29 13:52:57;;;;;;;;;;;19.20;65.60;;;;;;5069463;28;20010;-68
2021/04/29 13:55:23;;;;;;;;;;;19.10;66.90;;;;;;5069519;28;19908;-69
2021/04/29 13:57:48;;;;;;;;;;;19.30;65.40;;;;;;5069491;28;19957;-68
2021/04/29 14:00:14;;;;;;;;;;;19.40;65.80;;;;;;5069072;28;19958;-69
2021/04/29 14:02:40;;;;;;;;;;;19.50;64.40;;;;;;5069792;28;20001;-67
2021/04/29 14:05:06;;;;;;;;;;;19.60;63.60;;;;;;5069288;28;19911;-70
2021/04/29 14:07:32;;;;;;;;;;;19.50;63.70;;;;;;5069209;28;19923;-68
2021/04/29 14:09:57;;;;;;;;;;;19.40;63.70;;;;;;5067928;28;19908;-68
2021/04/29 14:12:23;;;;;;;;;;;19.30;64.30;;;;;;5069113;28;19915;-68